createdAt,value
2022-08-04T00:00:09.797Z,52.51
2022-08-04T00:02:51.034Z,52.63
2022-08-04T00:05:31.648Z,53.06
2022-08-04T00:08:08.042Z,53.68
2022-08-04T00:10:37.457Z,54.40
2022-08-04T00:13:06.460Z,54.63
2022-08-04T00:15:35.573Z,54.16
2022-08-04T00:18:06.518Z,53.96
2022-08-04T00:20:40.865Z,53.64
2022-08-04T00:23:09.705Z,53.86
2022-08-04T00:25:41.439Z,53.27
2022-08-04T00:28:10.197Z,53.07
2022-08-04T00:30:38.770Z,52.92
2022-08-04T00:33:07.932Z,52.66
2022-08-04T00:35:39.438Z,52.21
2022-08-04T00:38:07.506Z,52.25
2022-08-04T00:40:45.943Z,52.11
2022-08-04T00:43:20.532Z,51.79
2022-08-04T00:46:18.559Z,51.82
2022-08-04T00:49:02.349Z,52.15
2022-08-04T00:52:31.548Z,52.98
2022-08-04T00:54:48.996Z,53.34
2022-08-04T00:57:37.577Z,53.71
2022-08-04T01:00:10.842Z,54.04
2022-08-04T01:02:50.682Z,54.32
2022-08-04T01:05:28.990Z,54.78
2022-08-04T01:08:38.812Z,55.06
2022-08-04T01:11:28.423Z,55.23
2022-08-04T01:14:19.908Z,55.01
2022-08-04T01:16:50.959Z,54.63
2022-08-04T01:19:43.078Z,53.90
2022-08-04T01:22:39.669Z,53.72
2022-08-04T01:25:46.258Z,53.46
2022-08-04T01:28:29.964Z,53.35
2022-08-04T01:31:13.080Z,53.27
2022-08-04T01:34:03.258Z,53.02
2022-08-04T01:36:34.999Z,53.00
2022-08-04T01:39:24.936Z,53.02
2022-08-04T01:41:58.216Z,53.05
2022-08-04T01:44:29.456Z,53.28
2022-08-04T01:47:01.518Z,53.13
2022-08-04T01:49:32.224Z,53.10
2022-08-04T01:52:11.609Z,53.46
2022-08-04T01:54:42.801Z,53.88
2022-08-04T01:57:38.806Z,54.46
2022-08-04T02:00:00.683Z,54.76
2022-08-04T02:02:30.361Z,54.94
2022-08-04T02:04:58.345Z,54.52
2022-08-04T02:07:41.672Z,54.70
2022-08-04T02:10:23.028Z,54.62
2022-08-04T02:12:57.341Z,54.92
2022-08-04T02:15:29.942Z,55.41
2022-08-04T02:18:04.499Z,55.80
2022-08-04T02:20:36.533Z,55.84
2022-08-04T02:23:07.125Z,55.84
2022-08-04T02:25:40.495Z,55.27
2022-08-04T02:28:24.046Z,54.89
2022-08-04T02:31:03.972Z,54.88
2022-08-04T02:33:38.922Z,54.58
2022-08-04T02:36:10.532Z,54.79
2022-08-04T02:38:56.932Z,54.60
2022-08-04T02:41:27.186Z,54.56
2022-08-04T02:43:58.265Z,54.46
2022-08-04T02:46:26.675Z,54.20
2022-08-04T02:48:56.793Z,54.29
2022-08-04T02:51:28.391Z,54.58
2022-08-04T02:53:58.079Z,54.91
2022-08-04T02:56:29.161Z,55.42
2022-08-04T02:59:01.421Z,55.69
2022-08-04T03:01:29.874Z,55.83
2022-08-04T03:04:13.397Z,55.79
2022-08-04T03:07:25.142Z,55.87
2022-08-04T03:10:21.620Z,55.88
2022-08-04T03:13:19.924Z,55.83
2022-08-04T03:16:14.067Z,55.26
2022-08-04T03:19:02.913Z,55.29
2022-08-04T03:22:08.018Z,55.22
2022-08-04T03:25:10.810Z,54.89
2022-08-04T03:28:36.043Z,55.09
2022-08-04T03:31:26.645Z,54.94
2022-08-04T03:34:10.147Z,55.12
2022-08-04T03:37:09.968Z,55.13
2022-08-04T03:40:26.841Z,55.28
2022-08-04T03:43:59.081Z,54.97
2022-08-04T03:46:53.606Z,55.09
2022-08-04T03:49:59.640Z,55.08
2022-08-04T03:53:11.934Z,55.14
2022-08-04T03:56:12.135Z,55.32
2022-08-04T03:59:01.259Z,55.12
2022-08-04T04:02:02.525Z,55.29
2022-08-04T04:04:55.167Z,54.84
2022-08-04T04:08:01.865Z,54.93
2022-08-04T04:10:48.129Z,54.94
2022-08-04T04:13:48.211Z,54.97
2022-08-04T04:16:35.520Z,55.06
2022-08-04T04:19:29.413Z,54.75
2022-08-04T04:22:09.033Z,55.04
2022-08-04T04:24:55.829Z,55.22
2022-08-04T04:27:35.730Z,55.37
2022-08-04T04:30:09.837Z,56.07
2022-08-04T04:33:02.450Z,55.89
2022-08-04T04:35:42.439Z,55.89
2022-08-04T04:38:41.924Z,55.73
2022-08-04T04:41:27.981Z,55.85
2022-08-04T04:44:15.943Z,55.53
2022-08-04T04:46:49.754Z,55.49
2022-08-04T04:49:26.742Z,55.18
2022-08-04T04:52:01.487Z,55.61
2022-08-04T04:54:35.403Z,55.48
2022-08-04T04:57:10.906Z,55.43
2022-08-04T04:59:50.185Z,55.36
2022-08-04T05:02:45.110Z,55.54
2022-08-04T05:05:34.719Z,55.18
2022-08-04T05:08:43.286Z,55.11
2022-08-04T05:11:27.066Z,55.46
2022-08-04T05:14:36.437Z,55.30
2022-08-04T05:16:52.349Z,55.32
2022-08-04T05:19:26.808Z,55.19
2022-08-04T05:22:02.429Z,55.03
2022-08-04T05:24:37.449Z,55.55
2022-08-04T05:27:16.127Z,55.91
2022-08-04T05:29:51.035Z,55.84
2022-08-04T05:32:24.152Z,55.92
2022-08-04T05:35:00.023Z,55.78
2022-08-04T05:37:30.339Z,56.25
2022-08-04T05:40:03.576Z,56.63
2022-08-04T05:42:32.866Z,56.64
2022-08-04T05:45:01.332Z,56.70
2022-08-04T05:47:30.527Z,56.71
2022-08-04T05:50:02.155Z,56.67
2022-08-04T05:52:33.395Z,56.51
2022-08-04T05:55:03.717Z,56.51
2022-08-04T05:57:32.741Z,56.66
2022-08-04T06:00:19.738Z,57.14
2022-08-04T06:02:54.933Z,57.02
2022-08-04T06:05:24.378Z,57.10
2022-08-04T06:08:12.821Z,56.87
2022-08-04T06:10:43.627Z,56.60
2022-08-04T06:13:48.959Z,56.32
2022-08-04T06:16:03.962Z,56.36
2022-08-04T06:19:59.234Z,56.38
2022-08-04T06:21:25.673Z,56.66
2022-08-04T06:24:02.388Z,57.20
2022-08-04T06:26:35.847Z,57.18
2022-08-04T06:29:05.497Z,57.21
2022-08-04T06:32:28.435Z,57.07
2022-08-04T06:34:36.722Z,57.16
2022-08-04T06:37:05.334Z,57.26
2022-08-04T06:39:34.985Z,57.10
2022-08-04T06:42:21.760Z,57.01
2022-08-04T06:44:55.267Z,56.55
2022-08-04T06:47:24.284Z,56.36
2022-08-04T06:51:31.899Z,56.10
2022-08-04T06:52:45.699Z,56.47
2022-08-04T06:55:14.472Z,56.15
2022-08-04T06:57:45.551Z,56.35
2022-08-04T07:00:15.400Z,56.07
2022-08-04T07:02:47.269Z,56.12
2022-08-04T07:05:16.399Z,56.11
2022-08-04T07:07:56.937Z,55.61
2022-08-04T07:10:28.417Z,55.72
2022-08-04T07:12:58.865Z,55.14
2022-08-04T07:15:28.202Z,54.60
2022-08-04T07:18:00.213Z,54.40
2022-08-04T07:20:35.218Z,54.11
2022-08-04T07:23:05.273Z,54.25
2022-08-04T07:25:57.237Z,53.99
2022-08-04T07:28:26.861Z,54.04
2022-08-04T07:30:55.701Z,53.88
2022-08-04T07:33:24.728Z,53.46
2022-08-04T07:36:08.381Z,53.14
2022-08-04T07:38:46.618Z,53.06
2022-08-04T07:41:39.341Z,52.82
2022-08-04T07:44:09.975Z,52.44
2022-08-04T07:46:38.246Z,52.46
2022-08-04T07:49:07.405Z,52.42
2022-08-04T07:51:37.719Z,52.26
2022-08-04T07:54:07.788Z,51.56
2022-08-04T07:56:37.937Z,51.35
2022-08-04T07:59:06.623Z,51.03
2022-08-04T08:01:37.394Z,50.67
2022-08-04T08:04:08.014Z,50.34
2022-08-04T08:06:42.703Z,49.99
2022-08-04T08:09:14.842Z,49.08
2022-08-04T08:12:37.864Z,47.98
2022-08-04T08:14:33.321Z,48.39
2022-08-04T08:17:03.063Z,48.00
2022-08-04T08:19:31.485Z,48.31
2022-08-04T08:22:01.425Z,47.43
2022-08-04T08:24:30.706Z,47.34
2022-08-04T08:27:00.104Z,47.69
2022-08-04T08:29:29.931Z,47.70
2022-08-04T08:32:02.629Z,47.20
2022-08-04T08:34:34.920Z,47.35
2022-08-04T08:37:10.793Z,46.45
2022-08-04T08:39:42.493Z,46.30
2022-08-04T08:42:35.904Z,46.38
2022-08-04T08:45:29.538Z,46.38
2022-08-04T08:48:15.170Z,46.07
2022-08-04T08:51:03.994Z,46.51
2022-08-04T08:53:49.132Z,46.56
2022-08-04T08:56:30.936Z,46.40
2022-08-04T08:59:25.632Z,45.90
2022-08-04T09:02:28.146Z,45.56
2022-08-04T09:05:09.410Z,45.14
2022-08-04T09:08:12.070Z,45.51
2022-08-04T09:10:44.888Z,45.97
2022-08-04T09:13:21.240Z,45.75
2022-08-04T09:15:58.304Z,46.00
2022-08-04T09:18:33.797Z,45.75
2022-08-04T09:21:07.666Z,46.04
2022-08-04T09:23:47.785Z,45.43
2022-08-04T09:26:21.650Z,45.53
2022-08-04T09:28:55.720Z,44.16
2022-08-04T09:31:30.171Z,42.84
2022-08-04T09:34:28.206Z,42.00
2022-08-04T09:37:05.681Z,41.61
2022-08-04T09:39:52.112Z,41.33
2022-08-04T09:42:30.254Z,41.25
2022-08-04T09:45:06.466Z,41.06
2022-08-04T09:47:40.702Z,40.81
2022-08-04T09:50:27.838Z,39.99
2022-08-04T09:53:04.121Z,40.01
2022-08-04T09:55:57.930Z,40.13
2022-08-04T09:58:51.056Z,40.71
2022-08-04T10:01:23.713Z,40.64
2022-08-04T10:03:56.072Z,39.65
2022-08-04T10:06:47.229Z,38.35
2022-08-04T10:09:29.628Z,36.95
2022-08-04T10:12:14.041Z,36.65
2022-08-04T10:14:52.778Z,36.45
2022-08-04T10:17:59.997Z,36.18
2022-08-04T10:20:57.371Z,35.57
2022-08-04T10:23:55.931Z,35.93
2022-08-04T10:26:32.510Z,36.40
2022-08-04T10:29:06.907Z,36.67
2022-08-04T10:31:40.541Z,36.47
2022-08-04T10:34:13.529Z,37.01
2022-08-04T10:36:49.879Z,36.91
2022-08-04T10:39:43.183Z,36.95
2022-08-04T10:42:22.753Z,37.27
2022-08-04T10:45:07.771Z,37.27
2022-08-04T10:47:43.745Z,36.69
2022-08-04T10:50:14.392Z,36.93
2022-08-04T10:52:47.469Z,37.17
2022-08-04T10:55:20.148Z,37.54
2022-08-04T10:57:52.667Z,37.98
2022-08-04T11:00:26.425Z,38.34
2022-08-04T11:02:59.763Z,38.69
2022-08-04T11:05:32.825Z,38.13
2022-08-04T11:08:20.813Z,37.94
2022-08-04T11:10:55.849Z,37.87
2022-08-04T11:13:29.949Z,37.65
2022-08-04T11:16:05.193Z,37.42
2022-08-04T11:18:47.616Z,37.51
2022-08-04T11:21:27.062Z,37.63
2022-08-04T11:24:03.077Z,37.46
2022-08-04T11:26:42.884Z,37.35
2022-08-04T11:29:21.846Z,36.81
2022-08-04T11:31:52.036Z,36.17
2022-08-04T11:34:22.140Z,36.23
2022-08-04T11:36:56.746Z,36.32
2022-08-04T11:39:30.687Z,36.53
2022-08-04T11:42:11.455Z,36.24
2022-08-04T11:44:44.567Z,36.33
2022-08-04T11:47:23.245Z,36.54
2022-08-04T11:49:58.246Z,36.23
2022-08-04T11:52:28.198Z,36.21
2022-08-04T11:54:57.909Z,35.81
2022-08-04T11:57:35.978Z,35.56
2022-08-04T12:00:11.411Z,35.34
2022-08-04T12:02:59.837Z,35.00
2022-08-04T12:05:36.835Z,32.78
2022-08-04T12:08:22.989Z,31.91
2022-08-04T12:11:02.211Z,31.62
2022-08-04T12:13:37.482Z,31.53
2022-08-04T12:16:14.835Z,31.14
2022-08-04T12:18:52.606Z,30.37
2022-08-04T12:21:29.076Z,30.67
2022-08-04T12:24:02.654Z,30.66
2022-08-04T12:26:38.201Z,30.76
2022-08-04T12:29:10.833Z,31.36
2022-08-04T12:31:46.389Z,31.23
2022-08-04T12:34:18.901Z,30.51
2022-08-04T12:36:55.701Z,30.42
2022-08-04T12:39:26.302Z,30.20
2022-08-04T12:42:04.748Z,30.44
2022-08-04T12:44:38.270Z,30.60
2022-08-04T12:47:26.835Z,30.08
2022-08-04T12:50:02.860Z,29.98
2022-08-04T12:52:59.090Z,30.41
2022-08-04T12:55:25.294Z,30.36
2022-08-04T12:57:54.698Z,29.72
2022-08-04T13:00:30.511Z,30.20
2022-08-04T13:03:10.192Z,29.45
2022-08-04T13:05:41.838Z,28.95
2022-08-04T13:08:11.511Z,27.89
2022-08-04T13:10:42.371Z,28.13
2022-08-04T13:13:17.318Z,28.06
2022-08-04T13:15:56.939Z,28.22
2022-08-04T13:18:30.152Z,27.28
2022-08-04T13:21:22.702Z,26.81
2022-08-04T13:24:19.032Z,26.99
2022-08-04T13:26:56.762Z,27.45
2022-08-04T13:30:00.043Z,27.46
2022-08-04T13:32:18.438Z,27.25
2022-08-04T13:34:56.169Z,27.48
2022-08-04T13:37:38.268Z,27.04
2022-08-04T13:40:35.163Z,26.96
2022-08-04T13:44:16.266Z,27.02
2022-08-04T13:46:36.093Z,26.72
2022-08-04T13:49:43.154Z,26.17
2022-08-04T13:52:20.182Z,26.38
2022-08-04T13:54:54.935Z,25.53
2022-08-04T13:57:33.960Z,25.55
2022-08-04T14:00:10.978Z,25.65
2022-08-04T14:02:46.518Z,25.75
2022-08-04T14:05:59.520Z,26.59
2022-08-04T14:08:31.643Z,26.11
2022-08-04T14:11:04.003Z,25.95
2022-08-04T14:13:41.459Z,25.51
2022-08-04T14:16:18.027Z,25.32
2022-08-04T14:18:47.114Z,25.41
2022-08-04T14:21:16.299Z,25.19
2022-08-04T14:23:48.338Z,25.65
2022-08-04T14:26:32.796Z,25.06
2022-08-04T14:29:28.325Z,25.12
2022-08-04T14:32:10.523Z,24.90
2022-08-04T14:34:42.323Z,24.03
2022-08-04T14:37:19.320Z,24.25
2022-08-04T14:40:18.909Z,24.62
2022-08-04T14:42:43.519Z,24.66
2022-08-04T14:45:12.097Z,23.96
2022-08-04T14:47:41.991Z,24.04
2022-08-04T14:50:33.695Z,24.00
2022-08-04T14:53:05.291Z,23.76
2022-08-04T14:55:33.352Z,23.89
2022-08-04T14:58:36.167Z,23.28
2022-08-04T15:00:53.177Z,23.75
2022-08-04T15:03:22.747Z,23.62
2022-08-04T15:05:55.577Z,23.15
2022-08-04T15:08:32.754Z,23.27
2022-08-04T15:11:02.901Z,22.91
2022-08-04T15:13:33.831Z,22.26
2022-08-04T15:16:07.236Z,21.70
2022-08-04T15:18:38.881Z,21.60
2022-08-04T15:21:07.843Z,20.87
2022-08-04T15:23:39.695Z,20.49
2022-08-04T15:26:13.443Z,20.36
2022-08-04T15:28:48.216Z,20.45
2022-08-04T15:32:06.695Z,21.63
2022-08-04T15:34:07.744Z,21.94
2022-08-04T15:36:56.930Z,22.14
2022-08-04T15:39:36.871Z,21.37
2022-08-04T15:42:21.292Z,21.45
2022-08-04T15:45:13.399Z,21.11
2022-08-04T15:47:41.885Z,21.50
2022-08-04T15:50:28.183Z,21.18
2022-08-04T15:53:10.383Z,21.37
2022-08-04T15:55:43.192Z,21.84
2022-08-04T15:58:14.695Z,21.21
2022-08-04T16:01:18.596Z,21.29
2022-08-04T16:03:58.717Z,21.08
2022-08-04T16:07:07.945Z,20.78
2022-08-04T16:09:45.269Z,20.51
2022-08-04T16:12:54.542Z,21.07
2022-08-04T16:15:42.719Z,21.43
2022-08-04T16:18:25.410Z,21.43
2022-08-04T16:20:57.306Z,21.55
2022-08-04T16:24:00.772Z,21.59
2022-08-04T16:26:54.694Z,21.70
2022-08-04T16:29:29.684Z,21.54
2022-08-04T16:32:18.386Z,21.67
2022-08-04T16:35:18.659Z,21.69
2022-08-04T16:37:46.888Z,21.88
2022-08-04T16:40:35.725Z,22.18
2022-08-04T16:43:09.655Z,22.16
2022-08-04T16:45:44.756Z,21.92
2022-08-04T16:48:13.763Z,22.13
2022-08-04T16:50:52.292Z,21.76
2022-08-04T16:53:53.106Z,22.01
2022-08-04T16:56:11.201Z,22.17
2022-08-04T16:58:53.686Z,22.93
2022-08-04T17:01:32.533Z,22.48
2022-08-04T17:04:06.057Z,23.30
2022-08-04T17:06:37.749Z,23.66
2022-08-04T17:09:07.634Z,23.53
2022-08-04T17:11:36.842Z,23.64
2022-08-04T17:14:06.523Z,23.71
2022-08-04T17:16:37.833Z,23.91
2022-08-04T17:19:19.792Z,23.92
2022-08-04T17:22:00.379Z,23.65
2022-08-04T17:24:30.718Z,23.23
2022-08-04T17:26:59.706Z,23.98
2022-08-04T17:29:43.887Z,24.62
2022-08-04T17:32:18.625Z,25.31
2022-08-04T17:34:50.287Z,25.80
2022-08-04T17:37:39.102Z,26.62
2022-08-04T17:40:12.060Z,28.06
2022-08-04T17:42:41.703Z,28.57
2022-08-04T17:48:03.599Z,30.61
2022-08-04T17:50:35.770Z,31.35
2022-08-04T17:53:11.826Z,31.90
2022-08-04T17:55:42.630Z,32.49
2022-08-04T17:58:21.413Z,33.85
2022-08-04T18:01:22.700Z,34.18
2022-08-04T18:03:53.084Z,34.64
2022-08-04T18:06:25.777Z,35.60
2022-08-04T18:08:59.358Z,35.56
2022-08-04T18:11:54.131Z,36.52
2022-08-04T18:14:25.948Z,36.46
2022-08-04T18:16:57.250Z,36.73
2022-08-04T18:19:25.252Z,37.23
2022-08-04T18:21:59.829Z,37.29
2022-08-04T18:24:35.682Z,37.74
2022-08-04T18:27:23.682Z,38.23
2022-08-04T18:30:33.290Z,38.37
2022-08-04T18:33:04.229Z,38.76
2022-08-04T18:36:31.284Z,39.04
2022-08-04T18:38:24.001Z,38.64
2022-08-04T18:40:55.284Z,39.17
2022-08-04T18:43:27.878Z,38.79
2022-08-04T18:45:59.493Z,39.15
2022-08-04T18:48:35.891Z,38.75
2022-08-04T18:51:22.586Z,39.04
2022-08-04T18:53:55.137Z,38.84
2022-08-04T18:56:29.294Z,39.14
2022-08-04T18:59:00.162Z,39.01
2022-08-04T19:01:29.626Z,38.92
2022-08-04T19:04:33.814Z,38.92
2022-08-04T19:07:28.698Z,39.16
2022-08-04T19:09:57.302Z,39.04
2022-08-04T19:12:28.518Z,39.19
2022-08-04T19:14:58.128Z,38.74
2022-08-04T19:17:53.674Z,39.21
2022-08-04T19:20:24.179Z,38.82
2022-08-04T19:24:26.848Z,39.02
2022-08-04T19:26:01.438Z,38.79
2022-08-04T19:28:31.828Z,39.06
2022-08-04T19:31:02.596Z,39.34
2022-08-04T19:33:59.210Z,39.46
2022-08-04T19:36:18.625Z,39.93
2022-08-04T19:38:46.973Z,40.00
2022-08-04T19:41:16.697Z,40.12
2022-08-04T19:43:47.765Z,40.02
2022-08-04T19:46:17.745Z,40.31
2022-08-04T19:48:59.217Z,40.19
2022-08-04T19:51:30.343Z,40.52
2022-08-04T19:54:03.782Z,40.75
2022-08-04T19:56:48.690Z,40.93
2022-08-04T19:59:18.032Z,40.73
2022-08-04T20:01:46.273Z,41.11
2022-08-04T20:04:15.036Z,41.24
2022-08-04T20:06:43.817Z,41.20
2022-08-04T20:09:24.951Z,41.52
2022-08-04T20:11:55.597Z,41.71
2022-08-04T20:17:13.437Z,42.02
2022-08-04T20:19:51.058Z,41.98
2022-08-04T20:22:50.779Z,42.42
2022-08-04T20:25:36.109Z,42.25
2022-08-04T20:28:00.517Z,42.34
2022-08-04T20:30:31.364Z,42.31
2022-08-04T20:33:01.076Z,42.67
2022-08-04T20:35:29.422Z,43.09
2022-08-04T20:38:00.645Z,43.59
2022-08-04T20:40:29.987Z,43.78
2022-08-04T20:42:58.159Z,44.25
2022-08-04T20:45:31.811Z,44.23
2022-08-04T20:48:15.697Z,44.34
2022-08-04T20:50:46.130Z,44.38
2022-08-04T20:53:16.795Z,44.87
2022-08-04T20:55:55.629Z,45.15
2022-08-04T20:58:27.582Z,45.53
2022-08-04T21:00:56.924Z,45.70
2022-08-04T21:03:49.938Z,45.34
2022-08-04T21:06:15.915Z,45.50
2022-08-04T21:08:43.982Z,45.64
2022-08-04T21:11:32.605Z,44.79
2022-08-04T21:14:01.707Z,45.00
2022-08-04T21:16:53.710Z,44.81
2022-08-04T21:19:22.550Z,44.87
2022-08-04T21:21:53.301Z,44.99
2022-08-04T21:24:26.017Z,45.01
2022-08-04T21:26:56.557Z,45.17
2022-08-04T21:29:34.670Z,44.80
2022-08-04T21:32:04.609Z,45.01
2022-08-04T21:34:39.218Z,45.22
2022-08-04T21:37:09.165Z,45.19
2022-08-04T21:39:50.663Z,45.47
2022-08-04T21:42:28.754Z,45.43
2022-08-04T21:44:58.634Z,45.58
2022-08-04T21:47:26.606Z,45.51
2022-08-04T21:50:19.878Z,45.51
2022-08-04T21:52:48.959Z,46.04
2022-08-04T21:55:17.196Z,46.10
2022-08-04T21:57:47.108Z,45.83
2022-08-04T22:00:19.668Z,45.55
2022-08-04T22:02:53.380Z,45.49
2022-08-04T22:05:23.492Z,45.22
2022-08-04T22:07:52.150Z,45.10
2022-08-04T22:10:32.056Z,45.12
2022-08-04T22:13:06.730Z,45.56
2022-08-04T22:16:04.234Z,45.26
2022-08-04T22:18:24.613Z,45.23
2022-08-04T22:20:57.089Z,45.02
2022-08-04T22:23:26.271Z,44.95
2022-08-04T22:25:56.150Z,45.13
2022-08-04T22:28:28.140Z,46.46
2022-08-04T22:30:57.333Z,47.13
2022-08-04T22:33:54.047Z,47.23
2022-08-04T22:36:16.945Z,47.43
2022-08-04T22:38:50.053Z,47.09
2022-08-04T22:41:21.601Z,47.70
2022-08-04T22:44:02.123Z,48.52
2022-08-04T22:46:31.099Z,48.58
2022-08-04T22:48:59.144Z,48.53
2022-08-04T22:51:28.690Z,47.98
2022-08-04T22:53:58.038Z,47.80
2022-08-04T22:56:38.640Z,47.47
2022-08-04T22:59:10.162Z,46.26
2022-08-04T23:02:00.680Z,46.47
2022-08-04T23:04:30.112Z,46.42
2022-08-04T23:07:00.159Z,47.09
2022-08-04T23:09:50.758Z,46.97
2022-08-04T23:12:26.441Z,47.40
2022-08-04T23:14:55.147Z,47.22
2022-08-04T23:17:23.311Z,47.12
2022-08-04T23:19:57.974Z,46.58
2022-08-04T23:22:41.481Z,46.25
2022-08-04T23:25:15.426Z,46.58
2022-08-04T23:27:50.614Z,46.32
2022-08-04T23:30:21.717Z,46.18
2022-08-04T23:32:53.615Z,45.96
2022-08-04T23:35:22.402Z,46.24
2022-08-04T23:37:56.517Z,46.07
2022-08-04T23:40:33.415Z,45.90
2022-08-04T23:43:17.545Z,46.35
2022-08-04T23:46:04.185Z,46.77
2022-08-04T23:48:34.975Z,47.10
2022-08-04T23:51:14.040Z,47.65
2022-08-04T23:54:03.327Z,47.29
2022-08-04T23:56:34.169Z,47.22
2022-08-04T23:59:03.677Z,47.42
